sensor_id;sensor_type;location;lat;lon;timestamp;temperature;humidity
22469;DHT22;11401;50.792;4.352;2023-02-26T00:01:26;12.50;56.00
22469;DHT22;11401;50.792;4.352;2023-02-26T00:03:56;12.50;56.60
22469;DHT22;11401;50.792;4.352;2023-02-26T00:06:24;12.60;56.20
22469;DHT22;11401;50.792;4.352;2023-02-26T00:08:52;12.70;56.20
22469;DHT22;11401;50.792;4.352;2023-02-26T00:11:20;12.60;56.00
22469;DHT22;11401;50.792;4.352;2023-02-26T00:13:49;12.70;56.30
22469;DHT22;11401;50.792;4.352;2023-02-26T00:16:34;12.60;56.30
22469;DHT22;11401;50.792;4.352;2023-02-26T00:19:04;12.70;56.40
22469;DHT22;11401;50.792;4.352;2023-02-26T00:21:33;12.70;55.90
22469;DHT22;11401;50.792;4.352;2023-02-26T00:24:00;12.70;56.60
22469;DHT22;11401;50.792;4.352;2023-02-26T00:26:29;12.70;56.10
22469;DHT22;11401;50.792;4.352;2023-02-26T00:28:58;12.80;56.20
22469;DHT22;11401;50.792;4.352;2023-02-26T00:31:26;12.70;56.40
22469;DHT22;11401;50.792;4.352;2023-02-26T00:33:55;12.70;55.40
22469;DHT22;11401;50.792;4.352;2023-02-26T00:36:24;12.60;56.10
22469;DHT22;11401;50.792;4.352;2023-02-26T00:39:08;12.40;56.10
22469;DHT22;11401;50.792;4.352;2023-02-26T00:41:39;12.40;55.70
22469;DHT22;11401;50.792;4.352;2023-02-26T00:44:06;12.40;55.90
22469;DHT22;11401;50.792;4.352;2023-02-26T00:47:03;12.40;56.20
22469;DHT22;11401;50.792;4.352;2023-02-26T00:49:49;12.40;55.90
22469;DHT22;11401;50.792;4.352;2023-02-26T00:55:09;12.10;56.00
22469;DHT22;11401;50.792;4.352;2023-02-26T00:57:36;12.10;56.00
22469;DHT22;11401;50.792;4.352;2023-02-26T01:00:04;12.10;56.00
22469;DHT22;11401;50.792;4.352;2023-02-26T01:02:34;12.20;55.70
22469;DHT22;11401;50.792;4.352;2023-02-26T01:05:04;12.10;55.60
22469;DHT22;11401;50.792;4.352;2023-02-26T01:07:43;12.10;55.30
22469;DHT22;11401;50.792;4.352;2023-02-26T01:10:12;12.10;56.30
22469;DHT22;11401;50.792;4.352;2023-02-26T01:12:40;12.10;55.80
22469;DHT22;11401;50.792;4.352;2023-02-26T01:15:08;12.10;56.10
22469;DHT22;11401;50.792;4.352;2023-02-26T01:20:28;12.00;55.80
22469;DHT22;11401;50.792;4.352;2023-02-26T01:23:00;12.00;55.60
22469;DHT22;11401;50.792;4.352;2023-02-26T01:28:24;12.10;56.40
22469;DHT22;11401;50.792;4.352;2023-02-26T01:30:54;12.00;56.40
22469;DHT22;11401;50.792;4.352;2023-02-26T01:33:39;12.00;56.20
22469;DHT22;11401;50.792;4.352;2023-02-26T01:36:09;11.90;56.70
22469;DHT22;11401;50.792;4.352;2023-02-26T01:43:56;11.90;56.40
22469;DHT22;11401;50.792;4.352;2023-02-26T01:49:17;11.90;56.60
22469;DHT22;11401;50.792;4.352;2023-02-26T01:51:46;11.90;57.10
22469;DHT22;11401;50.792;4.352;2023-02-26T01:54:16;11.80;56.70
22469;DHT22;11401;50.792;4.352;2023-02-26T01:56:52;11.70;54.90
22469;DHT22;11401;50.792;4.352;2023-02-26T01:59:21;11.70;55.60
22469;DHT22;11401;50.792;4.352;2023-02-26T02:01:55;11.70;56.20
22469;DHT22;11401;50.792;4.352;2023-02-26T02:04:23;11.70;56.70
22469;DHT22;11401;50.792;4.352;2023-02-26T02:06:50;11.70;56.40
22469;DHT22;11401;50.792;4.352;2023-02-26T02:09:19;11.70;57.10
22469;DHT22;11401;50.792;4.352;2023-02-26T02:17:40;11.70;56.20
22469;DHT22;11401;50.792;4.352;2023-02-26T02:22:59;11.60;56.00
22469;DHT22;11401;50.792;4.352;2023-02-26T02:31:12;11.30;54.60
22469;DHT22;11401;50.792;4.352;2023-02-26T02:33:51;11.40;57.30
22469;DHT22;11401;50.792;4.352;2023-02-26T02:36:39;11.50;57.10
22469;DHT22;11401;50.792;4.352;2023-02-26T02:39:12;11.60;56.50
22469;DHT22;11401;50.792;4.352;2023-02-26T02:41:46;11.50;56.10
22469;DHT22;11401;50.792;4.352;2023-02-26T02:44:17;11.50;56.10
22469;DHT22;11401;50.792;4.352;2023-02-26T02:46:46;11.40;57.00
22469;DHT22;11401;50.792;4.352;2023-02-26T02:52:02;11.30;56.20
22469;DHT22;11401;50.792;4.352;2023-02-26T02:54:54;11.20;56.20
22469;DHT22;11401;50.792;4.352;2023-02-26T02:57:29;11.30;57.70
22469;DHT22;11401;50.792;4.352;2023-02-26T03:00:04;11.20;54.70
22469;DHT22;11401;50.792;4.352;2023-02-26T03:02:46;11.20;56.90
22469;DHT22;11401;50.792;4.352;2023-02-26T03:05:15;11.30;57.60
22469;DHT22;11401;50.792;4.352;2023-02-26T03:07:51;11.30;57.30
22469;DHT22;11401;50.792;4.352;2023-02-26T03:10:20;11.30;56.70
22469;DHT22;11401;50.792;4.352;2023-02-26T03:12:47;11.20;56.00
22469;DHT22;11401;50.792;4.352;2023-02-26T03:15:19;11.20;56.50
22469;DHT22;11401;50.792;4.352;2023-02-26T03:20:42;11.20;57.70
22469;DHT22;11401;50.792;4.352;2023-02-26T03:23:17;11.10;56.20
22469;DHT22;11401;50.792;4.352;2023-02-26T03:25:58;11.00;56.60
22469;DHT22;11401;50.792;4.352;2023-02-26T03:28:51;11.10;57.00
22469;DHT22;11401;50.792;4.352;2023-02-26T03:31:35;11.10;57.30
22469;DHT22;11401;50.792;4.352;2023-02-26T03:34:45;11.20;57.10
22469;DHT22;11401;50.792;4.352;2023-02-26T03:37:25;11.20;56.70
22469;DHT22;11401;50.792;4.352;2023-02-26T03:39:58;11.00;54.70
22469;DHT22;11401;50.792;4.352;2023-02-26T03:42:32;11.00;56.70
22469;DHT22;11401;50.792;4.352;2023-02-26T03:45:10;11.00;56.60
22469;DHT22;11401;50.792;4.352;2023-02-26T03:47:42;10.80;54.20
22469;DHT22;11401;50.792;4.352;2023-02-26T03:50:23;10.80;58.50
22469;DHT22;11401;50.792;4.352;2023-02-26T03:53:15;10.80;56.30
22469;DHT22;11401;50.792;4.352;2023-02-26T03:58:50;10.80;57.50
22469;DHT22;11401;50.792;4.352;2023-02-26T04:04:23;11.00;57.80
22469;DHT22;11401;50.792;4.352;2023-02-26T04:06:53;11.00;57.30
22469;DHT22;11401;50.792;4.352;2023-02-26T04:09:21;10.90;56.60
22469;DHT22;11401;50.792;4.352;2023-02-26T04:11:49;10.80;55.20
22469;DHT22;11401;50.792;4.352;2023-02-26T04:14:17;10.80;57.70
22469;DHT22;11401;50.792;4.352;2023-02-26T04:16:45;10.80;58.00
22469;DHT22;11401;50.792;4.352;2023-02-26T04:19:12;10.90;57.60
22469;DHT22;11401;50.792;4.352;2023-02-26T04:21:41;10.80;55.20
22469;DHT22;11401;50.792;4.352;2023-02-26T04:24:08;10.80;56.30
22469;DHT22;11401;50.792;4.352;2023-02-26T04:26:35;10.40;55.30
22469;DHT22;11401;50.792;4.352;2023-02-26T04:29:03;10.10;56.60
22469;DHT22;11401;50.792;4.352;2023-02-26T04:31:30;10.30;59.40
22469;DHT22;11401;50.792;4.352;2023-02-26T04:33:58;10.10;56.50
22469;DHT22;11401;50.792;4.352;2023-02-26T04:36:25;10.10;56.60
22469;DHT22;11401;50.792;4.352;2023-02-26T04:38:53;10.10;58.50
22469;DHT22;11401;50.792;4.352;2023-02-26T04:41:20;10.40;58.50
22469;DHT22;11401;50.792;4.352;2023-02-26T04:43:48;10.30;58.20
22469;DHT22;11401;50.792;4.352;2023-02-26T04:46:23;10.30;59.90
22469;DHT22;11401;50.792;4.352;2023-02-26T04:48:50;10.50;59.30
22469;DHT22;11401;50.792;4.352;2023-02-26T04:51:19;10.50;57.10
22469;DHT22;11401;50.792;4.352;2023-02-26T04:53:46;10.40;57.40
22469;DHT22;11401;50.792;4.352;2023-02-26T04:56:13;10.40;57.30
22469;DHT22;11401;50.792;4.352;2023-02-26T04:58:41;10.40;58.10
22469;DHT22;11401;50.792;4.352;2023-02-26T05:01:13;10.50;57.40
22469;DHT22;11401;50.792;4.352;2023-02-26T05:03:41;10.40;57.80
22469;DHT22;11401;50.792;4.352;2023-02-26T05:06:09;10.40;57.10
22469;DHT22;11401;50.792;4.352;2023-02-26T05:08:36;10.40;56.80
22469;DHT22;11401;50.792;4.352;2023-02-26T05:11:11;10.40;55.70
22469;DHT22;11401;50.792;4.352;2023-02-26T05:13:38;10.40;57.80
22469;DHT22;11401;50.792;4.352;2023-02-26T05:16:06;10.10;56.00
22469;DHT22;11401;50.792;4.352;2023-02-26T05:18:33;10.00;52.40
22469;DHT22;11401;50.792;4.352;2023-02-26T05:21:00;10.10;57.80
22469;DHT22;11401;50.792;4.352;2023-02-26T05:23:27;10.00;57.40
22469;DHT22;11401;50.792;4.352;2023-02-26T05:25:57;10.10;58.10
22469;DHT22;11401;50.792;4.352;2023-02-26T05:28:25;10.20;58.00
22469;DHT22;11401;50.792;4.352;2023-02-26T05:30:55;10.40;58.80
22469;DHT22;11401;50.792;4.352;2023-02-26T05:33:22;10.40;56.30
22469;DHT22;11401;50.792;4.352;2023-02-26T05:35:49;10.10;56.00
22469;DHT22;11401;50.792;4.352;2023-02-26T05:38:16;10.20;56.70
22469;DHT22;11401;50.792;4.352;2023-02-26T05:40:43;10.20;58.80
22469;DHT22;11401;50.792;4.352;2023-02-26T05:43:10;10.40;58.10
22469;DHT22;11401;50.792;4.352;2023-02-26T05:45:37;10.40;57.50
22469;DHT22;11401;50.792;4.352;2023-02-26T05:48:04;10.30;56.30
22469;DHT22;11401;50.792;4.352;2023-02-26T05:50:31;10.40;58.00
22469;DHT22;11401;50.792;4.352;2023-02-26T05:52:58;10.40;56.90
22469;DHT22;11401;50.792;4.352;2023-02-26T05:55:25;10.30;57.60
22469;DHT22;11401;50.792;4.352;2023-02-26T05:57:52;10.30;57.20
22469;DHT22;11401;50.792;4.352;2023-02-26T06:00:19;10.40;57.40
22469;DHT22;11401;50.792;4.352;2023-02-26T06:02:47;10.30;56.20
22469;DHT22;11401;50.792;4.352;2023-02-26T06:05:14;10.30;57.40
22469;DHT22;11401;50.792;4.352;2023-02-26T06:07:41;10.30;57.00
22469;DHT22;11401;50.792;4.352;2023-02-26T06:10:08;10.20;55.80
22469;DHT22;11401;50.792;4.352;2023-02-26T06:12:36;10.30;58.20
22469;DHT22;11401;50.792;4.352;2023-02-26T06:15:04;10.30;57.20
22469;DHT22;11401;50.792;4.352;2023-02-26T06:17:32;10.40;58.00
22469;DHT22;11401;50.792;4.352;2023-02-26T06:19:59;10.40;58.10
22469;DHT22;11401;50.792;4.352;2023-02-26T06:22:26;10.40;57.30
22469;DHT22;11401;50.792;4.352;2023-02-26T06:24:52;10.30;57.60
22469;DHT22;11401;50.792;4.352;2023-02-26T06:27:21;10.40;58.40
22469;DHT22;11401;50.792;4.352;2023-02-26T06:29:49;10.30;57.70
22469;DHT22;11401;50.792;4.352;2023-02-26T06:32:15;10.20;55.70
22469;DHT22;11401;50.792;4.352;2023-02-26T06:34:43;10.20;57.30
22469;DHT22;11401;50.792;4.352;2023-02-26T06:37:10;10.20;57.00
22469;DHT22;11401;50.792;4.352;2023-02-26T06:39:37;10.20;57.20
22469;DHT22;11401;50.792;4.352;2023-02-26T06:42:04;10.30;58.70
22469;DHT22;11401;50.792;4.352;2023-02-26T06:44:31;10.30;58.00
22469;DHT22;11401;50.792;4.352;2023-02-26T06:46:58;10.30;57.40
22469;DHT22;11401;50.792;4.352;2023-02-26T06:49:25;10.30;56.50
22469;DHT22;11401;50.792;4.352;2023-02-26T06:51:52;10.30;57.10
22469;DHT22;11401;50.792;4.352;2023-02-26T06:54:19;10.30;57.50
22469;DHT22;11401;50.792;4.352;2023-02-26T06:56:46;10.10;56.00
22469;DHT22;11401;50.792;4.352;2023-02-26T06:59:13;9.90;53.10
22469;DHT22;11401;50.792;4.352;2023-02-26T07:01:41;10.00;58.20
22469;DHT22;11401;50.792;4.352;2023-02-26T07:04:08;10.10;57.40
22469;DHT22;11401;50.792;4.352;2023-02-26T07:06:35;10.20;57.80
22469;DHT22;11401;50.792;4.352;2023-02-26T07:09:02;10.20;56.30
22469;DHT22;11401;50.792;4.352;2023-02-26T07:11:29;10.30;57.30
22469;DHT22;11401;50.792;4.352;2023-02-26T07:13:56;10.20;55.40
22469;DHT22;11401;50.792;4.352;2023-02-26T07:16:23;10.20;56.20
22469;DHT22;11401;50.792;4.352;2023-02-26T07:18:51;10.20;56.40
22469;DHT22;11401;50.792;4.352;2023-02-26T07:21:18;10.20;55.30
22469;DHT22;11401;50.792;4.352;2023-02-26T07:23:45;10.10;55.50
22469;DHT22;11401;50.792;4.352;2023-02-26T07:26:12;10.00;57.60
22469;DHT22;11401;50.792;4.352;2023-02-26T07:28:39;10.10;56.30
22469;DHT22;11401;50.792;4.352;2023-02-26T07:31:06;10.10;54.10
22469;DHT22;11401;50.792;4.352;2023-02-26T07:33:33;9.90;54.70
22469;DHT22;11401;50.792;4.352;2023-02-26T07:36:01;10.00;56.00
22469;DHT22;11401;50.792;4.352;2023-02-26T07:38:28;9.70;53.50
22469;DHT22;11401;50.792;4.352;2023-02-26T07:40:55;9.60;53.10
22469;DHT22;11401;50.792;4.352;2023-02-26T07:43:23;9.80;58.00
22469;DHT22;11401;50.792;4.352;2023-02-26T07:45:50;10.10;57.30
22469;DHT22;11401;50.792;4.352;2023-02-26T07:48:18;10.20;54.90
22469;DHT22;11401;50.792;4.352;2023-02-26T07:50:45;10.20;54.70
22469;DHT22;11401;50.792;4.352;2023-02-26T07:53:12;10.20;55.10
22469;DHT22;11401;50.792;4.352;2023-02-26T07:55:39;10.00;55.20
22469;DHT22;11401;50.792;4.352;2023-02-26T07:58:06;10.00;53.70
22469;DHT22;11401;50.792;4.352;2023-02-26T08:00:33;10.10;53.90
22469;DHT22;11401;50.792;4.352;2023-02-26T08:03:00;10.10;54.50
22469;DHT22;11401;50.792;4.352;2023-02-26T08:05:27;10.10;55.10
22469;DHT22;11401;50.792;4.352;2023-02-26T08:07:56;10.00;55.20
22469;DHT22;11401;50.792;4.352;2023-02-26T08:10:23;10.00;52.10
22469;DHT22;11401;50.792;4.352;2023-02-26T08:12:50;10.00;55.90
22469;DHT22;11401;50.792;4.352;2023-02-26T08:15:17;10.00;56.00
22469;DHT22;11401;50.792;4.352;2023-02-26T08:17:44;9.90;50.70
22469;DHT22;11401;50.792;4.352;2023-02-26T08:20:12;9.90;53.20
22469;DHT22;11401;50.792;4.352;2023-02-26T08:22:41;9.90;54.20
22469;DHT22;11401;50.792;4.352;2023-02-26T08:25:08;9.50;52.60
22469;DHT22;11401;50.792;4.352;2023-02-26T08:27:35;9.50;55.00
22469;DHT22;11401;50.792;4.352;2023-02-26T08:30:03;9.80;58.90
22469;DHT22;11401;50.792;4.352;2023-02-26T08:32:31;10.20;56.90
22469;DHT22;11401;50.792;4.352;2023-02-26T08:34:58;10.30;53.40
22469;DHT22;11401;50.792;4.352;2023-02-26T08:37:25;10.30;52.50
22469;DHT22;11401;50.792;4.352;2023-02-26T08:39:52;10.10;51.30
22469;DHT22;11401;50.792;4.352;2023-02-26T08:42:19;9.70;51.90
22469;DHT22;11401;50.792;4.352;2023-02-26T08:44:47;10.00;56.10
22469;DHT22;11401;50.792;4.352;2023-02-26T08:47:14;10.20;56.20
22469;DHT22;11401;50.792;4.352;2023-02-26T08:49:53;10.20;52.30
22469;DHT22;11401;50.792;4.352;2023-02-26T08:52:20;10.20;52.60
22469;DHT22;11401;50.792;4.352;2023-02-26T08:54:48;10.40;52.50
22469;DHT22;11401;50.792;4.352;2023-02-26T08:57:15;10.20;52.10
22469;DHT22;11401;50.792;4.352;2023-02-26T08:59:42;10.30;52.60
22469;DHT22;11401;50.792;4.352;2023-02-26T09:02:10;10.40;52.20
22469;DHT22;11401;50.792;4.352;2023-02-26T09:04:38;10.40;54.80
22469;DHT22;11401;50.792;4.352;2023-02-26T09:07:05;10.60;53.60
22469;DHT22;11401;50.792;4.352;2023-02-26T09:09:32;10.70;51.30
22469;DHT22;11401;50.792;4.352;2023-02-26T09:11:59;10.60;51.00
22469;DHT22;11401;50.792;4.352;2023-02-26T09:14:26;10.60;51.90
22469;DHT22;11401;50.792;4.352;2023-02-26T09:16:53;10.50;50.40
22469;DHT22;11401;50.792;4.352;2023-02-26T09:19:20;10.60;51.30
22469;DHT22;11401;50.792;4.352;2023-02-26T09:21:47;10.80;52.70
22469;DHT22;11401;50.792;4.352;2023-02-26T09:24:14;11.10;52.40
22469;DHT22;11401;50.792;4.352;2023-02-26T09:26:41;11.10;50.50
22469;DHT22;11401;50.792;4.352;2023-02-26T09:29:08;10.90;50.30
22469;DHT22;11401;50.792;4.352;2023-02-26T09:31:37;10.80;49.60
22469;DHT22;11401;50.792;4.352;2023-02-26T09:34:04;10.80;50.20
22469;DHT22;11401;50.792;4.352;2023-02-26T09:36:32;10.80;53.30
22469;DHT22;11401;50.792;4.352;2023-02-26T09:38:59;10.50;48.20
22469;DHT22;11401;50.792;4.352;2023-02-26T09:41:33;10.00;47.50
22469;DHT22;11401;50.792;4.352;2023-02-26T09:47:14;9.80;50.30
22469;DHT22;11401;50.792;4.352;2023-02-26T09:49:56;10.10;51.10
22469;DHT22;11401;50.792;4.352;2023-02-26T09:52:43;10.20;48.90
22469;DHT22;11401;50.792;4.352;2023-02-26T09:58:37;9.70;47.50
22469;DHT22;11401;50.792;4.352;2023-02-26T10:12:22;8.80;49.80
22469;DHT22;11401;50.792;4.352;2023-02-26T10:15:05;8.50;47.00
22469;DHT22;11401;50.792;4.352;2023-02-26T10:20:24;8.30;49.40
22469;DHT22;11401;50.792;4.352;2023-02-26T10:23:01;8.60;49.80
22469;DHT22;11401;50.792;4.352;2023-02-26T10:31:34;9.20;49.10
22469;DHT22;11401;50.792;4.352;2023-02-26T10:34:14;9.10;48.30
22469;DHT22;11401;50.792;4.352;2023-02-26T10:39:37;9.00;46.90
22469;DHT22;11401;50.792;4.352;2023-02-26T10:42:21;9.10;50.20
22469;DHT22;11401;50.792;4.352;2023-02-26T10:44:53;9.20;47.80
22469;DHT22;11401;50.792;4.352;2023-02-26T10:50:13;9.10;49.10
22469;DHT22;11401;50.792;4.352;2023-02-26T10:52:43;9.10;47.00
22469;DHT22;11401;50.792;4.352;2023-02-26T10:55:31;8.90;46.80
22469;DHT22;11401;50.792;4.352;2023-02-26T10:58:03;9.40;55.40
22469;DHT22;11401;50.792;4.352;2023-02-26T11:00:32;9.60;47.10
22469;DHT22;11401;50.792;4.352;2023-02-26T11:03:03;9.60;47.60
22469;DHT22;11401;50.792;4.352;2023-02-26T11:05:33;9.60;47.50
22469;DHT22;11401;50.792;4.352;2023-02-26T11:08:25;9.70;48.20
22469;DHT22;11401;50.792;4.352;2023-02-26T11:11:01;9.80;46.20
22469;DHT22;11401;50.792;4.352;2023-02-26T11:13:32;9.80;46.50
22469;DHT22;11401;50.792;4.352;2023-02-26T11:16:12;9.80;46.60
22469;DHT22;11401;50.792;4.352;2023-02-26T11:18:47;10.00;47.60
22469;DHT22;11401;50.792;4.352;2023-02-26T11:21:27;10.10;45.10
22469;DHT22;11401;50.792;4.352;2023-02-26T11:27:04;10.10;46.10
22469;DHT22;11401;50.792;4.352;2023-02-26T11:29:41;9.90;45.50
22469;DHT22;11401;50.792;4.352;2023-02-26T11:32:32;9.70;41.90
22469;DHT22;11401;50.792;4.352;2023-02-26T11:35:00;9.50;45.10
22469;DHT22;11401;50.792;4.352;2023-02-26T11:37:56;9.40;43.10
22469;DHT22;11401;50.792;4.352;2023-02-26T11:40:26;9.30;44.10
22469;DHT22;11401;50.792;4.352;2023-02-26T11:42:58;9.40;48.20
22469;DHT22;11401;50.792;4.352;2023-02-26T11:45:26;9.40;44.40
22469;DHT22;11401;50.792;4.352;2023-02-26T11:48:03;9.40;44.90
22469;DHT22;11401;50.792;4.352;2023-02-26T11:50:39;9.40;47.60
22469;DHT22;11401;50.792;4.352;2023-02-26T11:53:23;9.40;45.80
22469;DHT22;11401;50.792;4.352;2023-02-26T11:55:57;9.40;46.70
22469;DHT22;11401;50.792;4.352;2023-02-26T11:58:28;9.50;46.60
22469;DHT22;11401;50.792;4.352;2023-02-26T12:00:58;9.60;47.10
22469;DHT22;11401;50.792;4.352;2023-02-26T12:03:30;9.60;45.30
22469;DHT22;11401;50.792;4.352;2023-02-26T12:05:59;9.70;44.20
22469;DHT22;11401;50.792;4.352;2023-02-26T12:08:35;9.40;45.00
22469;DHT22;11401;50.792;4.352;2023-02-26T12:28:33;9.50;45.80
22469;DHT22;11401;50.792;4.352;2023-02-26T12:34:28;9.40;46.70
22469;DHT22;11401;50.792;4.352;2023-02-26T12:48:14;10.20;46.40
22469;DHT22;11401;50.792;4.352;2023-02-26T12:57:03;9.90;43.30
22469;DHT22;11401;50.792;4.352;2023-02-26T13:07:47;9.90;44.70
22469;DHT22;11401;50.792;4.352;2023-02-26T13:10:33;10.00;45.10
22469;DHT22;11401;50.792;4.352;2023-02-26T13:18:34;9.90;43.10
22469;DHT22;11401;50.792;4.352;2023-02-26T13:21:07;9.90;42.20
22469;DHT22;11401;50.792;4.352;2023-02-26T13:23:50;9.80;41.00
22469;DHT22;11401;50.792;4.352;2023-02-26T13:26:18;9.80;41.30
22469;DHT22;11401;50.792;4.352;2023-02-26T13:29:05;9.80;41.40
22469;DHT22;11401;50.792;4.352;2023-02-26T13:32:02;9.90;46.40
22469;DHT22;11401;50.792;4.352;2023-02-26T13:34:51;10.10;44.50
22469;DHT22;11401;50.792;4.352;2023-02-26T13:37:29;9.90;42.00
22469;DHT22;11401;50.792;4.352;2023-02-26T13:48:34;10.00;42.40
22469;DHT22;11401;50.792;4.352;2023-02-26T13:59:52;9.80;42.70
22469;DHT22;11401;50.792;4.352;2023-02-26T14:02:33;9.80;41.90
22469;DHT22;11401;50.792;4.352;2023-02-26T14:05:09;9.90;43.20
22469;DHT22;11401;50.792;4.352;2023-02-26T14:08:09;10.00;44.50
22469;DHT22;11401;50.792;4.352;2023-02-26T14:10:45;9.90;40.90
22469;DHT22;11401;50.792;4.352;2023-02-26T14:18:29;10.30;41.70
22469;DHT22;11401;50.792;4.352;2023-02-26T14:26:36;9.90;42.50
22469;DHT22;11401;50.792;4.352;2023-02-26T14:31:49;10.00;39.40
22469;DHT22;11401;50.792;4.352;2023-02-26T14:34:26;9.90;40.00
22469;DHT22;11401;50.792;4.352;2023-02-26T14:36:59;9.90;39.80
22469;DHT22;11401;50.792;4.352;2023-02-26T14:42:06;10.10;41.60
22469;DHT22;11401;50.792;4.352;2023-02-26T14:44:43;10.10;41.00
22469;DHT22;11401;50.792;4.352;2023-02-26T14:47:12;10.20;40.60
22469;DHT22;11401;50.792;4.352;2023-02-26T14:49:44;10.10;38.20
22469;DHT22;11401;50.792;4.352;2023-02-26T14:52:31;10.20;44.00
22469;DHT22;11401;50.792;4.352;2023-02-26T14:58:10;10.30;41.50
22469;DHT22;11401;50.792;4.352;2023-02-26T15:00:52;10.20;40.00
22469;DHT22;11401;50.792;4.352;2023-02-26T15:11:56;10.00;39.80
22469;DHT22;11401;50.792;4.352;2023-02-26T15:14:58;10.00;42.00
22469;DHT22;11401;50.792;4.352;2023-02-26T15:17:58;10.10;42.60
22469;DHT22;11401;50.792;4.352;2023-02-26T15:23:55;10.30;38.80
22469;DHT22;11401;50.792;4.352;2023-02-26T15:28:56;10.30;40.30
22469;DHT22;11401;50.792;4.352;2023-02-26T15:31:46;10.30;40.10
22469;DHT22;11401;50.792;4.352;2023-02-26T15:34:18;10.30;40.50
22469;DHT22;11401;50.792;4.352;2023-02-26T15:36:50;10.30;41.90
22469;DHT22;11401;50.792;4.352;2023-02-26T15:39:21;10.20;41.60
22469;DHT22;11401;50.792;4.352;2023-02-26T15:41:50;10.10;40.70
22469;DHT22;11401;50.792;4.352;2023-02-26T15:44:23;10.20;39.80
22469;DHT22;11401;50.792;4.352;2023-02-26T15:46:57;10.10;40.70
22469;DHT22;11401;50.792;4.352;2023-02-26T15:49:28;10.10;42.50
22469;DHT22;11401;50.792;4.352;2023-02-26T15:51:56;10.20;43.50
22469;DHT22;11401;50.792;4.352;2023-02-26T15:54:43;10.20;41.30
22469;DHT22;11401;50.792;4.352;2023-02-26T15:57:11;10.10;42.40
22469;DHT22;11401;50.792;4.352;2023-02-26T15:59:46;10.20;44.20
22469;DHT22;11401;50.792;4.352;2023-02-26T16:02:17;10.30;43.80
22469;DHT22;11401;50.792;4.352;2023-02-26T16:04:47;10.30;42.20
22469;DHT22;11401;50.792;4.352;2023-02-26T16:07:14;10.20;42.10
22469;DHT22;11401;50.792;4.352;2023-02-26T16:09:45;10.20;41.10
22469;DHT22;11401;50.792;4.352;2023-02-26T16:12:18;10.10;42.50
22469;DHT22;11401;50.792;4.352;2023-02-26T16:14:58;10.20;44.20
22469;DHT22;11401;50.792;4.352;2023-02-26T16:17:33;10.20;46.50
22469;DHT22;11401;50.792;4.352;2023-02-26T16:20:03;10.20;41.60
22469;DHT22;11401;50.792;4.352;2023-02-26T16:22:58;10.20;41.70
22469;DHT22;11401;50.792;4.352;2023-02-26T16:25:37;10.20;44.80
22469;DHT22;11401;50.792;4.352;2023-02-26T16:28:32;10.20;43.20
22469;DHT22;11401;50.792;4.352;2023-02-26T16:31:03;10.30;43.70
22469;DHT22;11401;50.792;4.352;2023-02-26T16:33:32;10.10;40.40
22469;DHT22;11401;50.792;4.352;2023-02-26T16:36:13;9.90;42.30
22469;DHT22;11401;50.792;4.352;2023-02-26T16:39:12;9.80;42.30
22469;DHT22;11401;50.792;4.352;2023-02-26T16:41:41;10.00;43.90
22469;DHT22;11401;50.792;4.352;2023-02-26T16:44:46;10.10;45.00
22469;DHT22;11401;50.792;4.352;2023-02-26T16:47:14;10.20;43.10
22469;DHT22;11401;50.792;4.352;2023-02-26T16:49:43;10.40;42.60
22469;DHT22;11401;50.792;4.352;2023-02-26T16:52:28;10.40;45.20
22469;DHT22;11401;50.792;4.352;2023-02-26T16:55:01;10.40;43.70
22469;DHT22;11401;50.792;4.352;2023-02-26T16:57:39;10.30;45.10
22469;DHT22;11401;50.792;4.352;2023-02-26T17:02:47;10.50;44.50
22469;DHT22;11401;50.792;4.352;2023-02-26T17:05:26;10.60;44.90
22469;DHT22;11401;50.792;4.352;2023-02-26T17:08:18;10.60;45.40
22469;DHT22;11401;50.792;4.352;2023-02-26T17:10:59;10.60;44.50
22469;DHT22;11401;50.792;4.352;2023-02-26T17:13:30;10.60;45.80
22469;DHT22;11401;50.792;4.352;2023-02-26T17:16:02;10.70;45.70
22469;DHT22;11401;50.792;4.352;2023-02-26T17:18:30;10.70;44.50
22469;DHT22;11401;50.792;4.352;2023-02-26T17:20:58;10.70;45.30
22469;DHT22;11401;50.792;4.352;2023-02-26T17:23:33;10.70;44.60
22469;DHT22;11401;50.792;4.352;2023-02-26T17:26:03;10.50;43.90
22469;DHT22;11401;50.792;4.352;2023-02-26T17:28:39;10.30;42.20
22469;DHT22;11401;50.792;4.352;2023-02-26T17:31:07;10.00;42.10
22469;DHT22;11401;50.792;4.352;2023-02-26T17:33:37;10.00;44.60
22469;DHT22;11401;50.792;4.352;2023-02-26T17:36:06;9.90;44.00
22469;DHT22;11401;50.792;4.352;2023-02-26T17:38:34;9.80;43.50
22469;DHT22;11401;50.792;4.352;2023-02-26T17:41:03;9.80;44.80
22469;DHT22;11401;50.792;4.352;2023-02-26T17:43:31;9.70;44.40
22469;DHT22;11401;50.792;4.352;2023-02-26T17:46:07;9.70;44.60
22469;DHT22;11401;50.792;4.352;2023-02-26T17:48:36;9.80;45.80
22469;DHT22;11401;50.792;4.352;2023-02-26T17:51:03;9.70;44.80
22469;DHT22;11401;50.792;4.352;2023-02-26T17:53:31;9.80;45.50
22469;DHT22;11401;50.792;4.352;2023-02-26T17:56:21;9.70;45.20
22469;DHT22;11401;50.792;4.352;2023-02-26T17:58:54;9.60;45.00
22469;DHT22;11401;50.792;4.352;2023-02-26T18:01:27;9.50;43.90
22469;DHT22;11401;50.792;4.352;2023-02-26T18:03:56;9.50;45.30
22469;DHT22;11401;50.792;4.352;2023-02-26T18:06:24;9.40;45.20
22469;DHT22;11401;50.792;4.352;2023-02-26T18:08:51;9.40;45.50
22469;DHT22;11401;50.792;4.352;2023-02-26T18:11:26;9.40;46.90
22469;DHT22;11401;50.792;4.352;2023-02-26T18:13:54;9.50;46.30
22469;DHT22;11401;50.792;4.352;2023-02-26T18:16:30;9.30;43.90
22469;DHT22;11401;50.792;4.352;2023-02-26T18:19:00;8.80;43.40
22469;DHT22;11401;50.792;4.352;2023-02-26T18:21:27;8.40;44.90
22469;DHT22;11401;50.792;4.352;2023-02-26T18:23:58;8.20;48.00
22469;DHT22;11401;50.792;4.352;2023-02-26T18:26:30;8.40;48.50
22469;DHT22;11401;50.792;4.352;2023-02-26T18:28:59;8.60;47.50
22469;DHT22;11401;50.792;4.352;2023-02-26T18:31:29;8.70;48.10
22469;DHT22;11401;50.792;4.352;2023-02-26T18:34:02;8.90;48.00
22469;DHT22;11401;50.792;4.352;2023-02-26T18:36:31;9.10;47.90
22469;DHT22;11401;50.792;4.352;2023-02-26T18:39:06;9.10;48.20
22469;DHT22;11401;50.792;4.352;2023-02-26T18:41:34;9.20;48.10
22469;DHT22;11401;50.792;4.352;2023-02-26T18:44:04;9.20;47.20
22469;DHT22;11401;50.792;4.352;2023-02-26T18:46:31;9.20;47.40
22469;DHT22;11401;50.792;4.352;2023-02-26T18:49:00;9.70;53.60
22469;DHT22;11401;50.792;4.352;2023-02-26T18:51:27;10.20;51.30
22469;DHT22;11401;50.792;4.352;2023-02-26T18:53:57;10.70;50.70
22469;DHT22;11401;50.792;4.352;2023-02-26T18:56:24;11.00;50.20
22469;DHT22;11401;50.792;4.352;2023-02-26T18:58:52;11.10;48.10
22469;DHT22;11401;50.792;4.352;2023-02-26T19:01:19;11.30;49.10
22469;DHT22;11401;50.792;4.352;2023-02-26T19:03:46;11.30;47.40
22469;DHT22;11401;50.792;4.352;2023-02-26T19:06:13;11.40;48.50
22469;DHT22;11401;50.792;4.352;2023-02-26T19:08:41;11.50;47.40